sensor_id;sensor_type;location;lat;lon;timestamp;P1;durP1;ratioP1;P2;durP2;ratioP2
46447;SDS011;32145;50.390;30.778;2022-12-07T00:00:55;18.17;;;6.05;;
46447;SDS011;32145;50.390;30.778;2022-12-07T00:03:49;14.38;;;6.10;;
46447;SDS011;32145;50.390;30.778;2022-12-07T00:06:35;16.90;;;5.60;;
46447;SDS011;32145;50.390;30.778;2022-12-07T00:09:21;18.88;;;7.18;;
46447;SDS011;32145;50.390;30.778;2022-12-07T00:12:05;16.77;;;6.15;;
46447;SDS011;32145;50.390;30.778;2022-12-07T00:14:49;12.77;;;5.65;;
46447;SDS011;32145;50.390;30.778;2022-12-07T00:17:33;15.57;;;6.03;;
46447;SDS011;32145;50.390;30.778;2022-12-07T00:20:18;18.50;;;6.50;;
46447;SDS011;32145;50.390;30.778;2022-12-07T00:23:03;13.07;;;5.65;;
46447;SDS011;32145;50.390;30.778;2022-12-07T00:25:47;11.82;;;5.40;;
46447;SDS011;32145;50.390;30.778;2022-12-07T00:28:31;12.48;;;5.60;;
46447;SDS011;32145;50.390;30.778;2022-12-07T00:31:16;16.60;;;7.18;;
46447;SDS011;32145;50.390;30.778;2022-12-07T00:34:02;13.85;;;5.88;;
46447;SDS011;32145;50.390;30.778;2022-12-07T00:36:47;11.32;;;6.05;;
46447;SDS011;32145;50.390;30.778;2022-12-07T00:39:32;12.80;;;5.55;;
46447;SDS011;32145;50.390;30.778;2022-12-07T00:42:16;12.95;;;5.50;;
46447;SDS011;32145;50.390;30.778;2022-12-07T00:45:00;12.40;;;5.88;;
46447;SDS011;32145;50.390;30.778;2022-12-07T00:47:44;9.95;;;5.38;;
46447;SDS011;32145;50.390;30.778;2022-12-07T00:50:28;11.68;;;5.82;;
46447;SDS011;32145;50.390;30.778;2022-12-07T00:53:13;13.50;;;5.10;;
46447;SDS011;32145;50.390;30.778;2022-12-07T00:55:57;11.85;;;5.20;;
46447;SDS011;32145;50.390;30.778;2022-12-07T00:58:41;14.90;;;5.63;;
46447;SDS011;32145;50.390;30.778;2022-12-07T01:01:27;15.77;;;5.40;;
46447;SDS011;32145;50.390;30.778;2022-12-07T01:04:13;11.70;;;4.93;;
46447;SDS011;32145;50.390;30.778;2022-12-07T01:06:57;13.00;;;5.10;;
46447;SDS011;32145;50.390;30.778;2022-12-07T01:09:43;16.50;;;5.55;;
46447;SDS011;32145;50.390;30.778;2022-12-07T01:12:27;14.77;;;5.57;;
46447;SDS011;32145;50.390;30.778;2022-12-07T01:15:11;12.50;;;5.35;;
46447;SDS011;32145;50.390;30.778;2022-12-07T01:17:55;16.17;;;5.53;;
46447;SDS011;32145;50.390;30.778;2022-12-07T01:20:39;11.65;;;5.63;;
46447;SDS011;32145;50.390;30.778;2022-12-07T01:23:23;15.43;;;5.95;;
46447;SDS011;32145;50.390;30.778;2022-12-07T01:26:11;15.50;;;6.13;;
46447;SDS011;32145;50.390;30.778;2022-12-07T01:28:56;11.15;;;5.07;;
46447;SDS011;32145;50.390;30.778;2022-12-07T01:31:40;13.00;;;5.70;;
46447;SDS011;32145;50.390;30.778;2022-12-07T01:34:24;12.70;;;5.80;;
46447;SDS011;32145;50.390;30.778;2022-12-07T01:37:08;15.35;;;5.85;;
46447;SDS011;32145;50.390;30.778;2022-12-07T01:39:52;18.65;;;5.88;;
46447;SDS011;32145;50.390;30.778;2022-12-07T01:42:38;13.70;;;5.55;;
46447;SDS011;32145;50.390;30.778;2022-12-07T01:48:29;14.20;;;6.10;;
46447;SDS011;32145;50.390;30.778;2022-12-07T01:51:19;18.83;;;6.80;;
46447;SDS011;32145;50.390;30.778;2022-12-07T01:54:03;16.13;;;6.53;;
46447;SDS011;32145;50.390;30.778;2022-12-07T01:56:49;16.75;;;6.72;;
46447;SDS011;32145;50.390;30.778;2022-12-07T01:59:37;21.48;;;7.40;;
46447;SDS011;32145;50.390;30.778;2022-12-07T02:02:31;18.35;;;7.97;;
46447;SDS011;32145;50.390;30.778;2022-12-07T02:05:17;15.75;;;7.20;;
46447;SDS011;32145;50.390;30.778;2022-12-07T02:08:02;20.23;;;7.75;;
46447;SDS011;32145;50.390;30.778;2022-12-07T02:10:47;17.50;;;7.28;;
46447;SDS011;32145;50.390;30.778;2022-12-07T02:13:31;14.32;;;6.63;;
46447;SDS011;32145;50.390;30.778;2022-12-07T02:16:23;18.27;;;7.40;;
46447;SDS011;32145;50.390;30.778;2022-12-07T02:29:29;16.95;;;7.03;;
46447;SDS011;32145;50.390;30.778;2022-12-07T02:32:18;24.25;;;7.93;;
46447;SDS011;32145;50.390;30.778;2022-12-07T02:35:11;18.08;;;7.20;;
46447;SDS011;32145;50.390;30.778;2022-12-07T02:38:01;16.88;;;7.03;;
46447;SDS011;32145;50.390;30.778;2022-12-07T02:40:52;18.20;;;6.43;;
46447;SDS011;32145;50.390;30.778;2022-12-07T02:43:41;15.50;;;6.15;;
46447;SDS011;32145;50.390;30.778;2022-12-07T02:46:30;17.25;;;6.38;;
46447;SDS011;32145;50.390;30.778;2022-12-07T02:49:17;18.60;;;6.40;;
46447;SDS011;32145;50.390;30.778;2022-12-07T02:52:02;19.73;;;7.07;;
46447;SDS011;32145;50.390;30.778;2022-12-07T02:54:46;16.88;;;6.40;;
46447;SDS011;32145;50.390;30.778;2022-12-07T02:57:47;15.30;;;6.50;;
46447;SDS011;32145;50.390;30.778;2022-12-07T03:00:40;15.23;;;5.53;;
46447;SDS011;32145;50.390;30.778;2022-12-07T03:03:34;15.77;;;6.15;;
46447;SDS011;32145;50.390;30.778;2022-12-07T03:06:22;14.43;;;6.00;;
46447;SDS011;32145;50.390;30.778;2022-12-07T03:09:12;16.83;;;5.90;;
46447;SDS011;32145;50.390;30.778;2022-12-07T03:12:06;16.60;;;6.20;;
46447;SDS011;32145;50.390;30.778;2022-12-07T03:14:55;16.60;;;5.05;;
46447;SDS011;32145;50.390;30.778;2022-12-07T03:17:46;14.68;;;5.07;;
46447;SDS011;32145;50.390;30.778;2022-12-07T03:20:34;12.93;;;5.18;;
46447;SDS011;32145;50.390;30.778;2022-12-07T03:23:20;15.35;;;5.30;;
46447;SDS011;32145;50.390;30.778;2022-12-07T03:26:08;13.30;;;5.40;;
46447;SDS011;32145;50.390;30.778;2022-12-07T03:28:55;13.20;;;5.43;;
46447;SDS011;32145;50.390;30.778;2022-12-07T03:31:45;13.85;;;5.65;;
46447;SDS011;32145;50.390;30.778;2022-12-07T03:34:32;13.18;;;5.45;;
46447;SDS011;32145;50.390;30.778;2022-12-07T03:37:22;14.27;;;5.05;;
46447;SDS011;32145;50.390;30.778;2022-12-07T03:40:14;10.15;;;4.60;;
46447;SDS011;32145;50.390;30.778;2022-12-07T03:43:03;16.67;;;5.43;;
46447;SDS011;32145;50.390;30.778;2022-12-07T03:45:53;14.60;;;5.63;;
46447;SDS011;32145;50.390;30.778;2022-12-07T03:48:46;14.50;;;5.43;;
46447;SDS011;32145;50.390;30.778;2022-12-07T03:51:39;11.25;;;5.53;;
46447;SDS011;32145;50.390;30.778;2022-12-07T03:54:29;12.27;;;5.40;;
46447;SDS011;32145;50.390;30.778;2022-12-07T03:57:18;10.40;;;5.18;;
46447;SDS011;32145;50.390;30.778;2022-12-07T04:00:05;15.15;;;4.78;;
46447;SDS011;32145;50.390;30.778;2022-12-07T04:02:51;14.65;;;5.75;;
46447;SDS011;32145;50.390;30.778;2022-12-07T04:05:35;12.82;;;5.15;;
46447;SDS011;32145;50.390;30.778;2022-12-07T04:08:20;12.43;;;5.40;;
46447;SDS011;32145;50.390;30.778;2022-12-07T04:11:05;9.70;;;4.40;;
46447;SDS011;32145;50.390;30.778;2022-12-07T04:13:49;10.93;;;4.88;;
46447;SDS011;32145;50.390;30.778;2022-12-07T04:16:33;10.70;;;4.70;;
46447;SDS011;32145;50.390;30.778;2022-12-07T04:19:18;12.65;;;5.07;;
46447;SDS011;32145;50.390;30.778;2022-12-07T04:22:03;13.93;;;4.43;;
46447;SDS011;32145;50.390;30.778;2022-12-07T04:24:48;13.18;;;4.53;;
46447;SDS011;32145;50.390;30.778;2022-12-07T04:27:33;10.88;;;5.45;;
46447;SDS011;32145;50.390;30.778;2022-12-07T04:30:18;8.45;;;4.10;;
46447;SDS011;32145;50.390;30.778;2022-12-07T04:33:02;9.77;;;4.32;;
46447;SDS011;32145;50.390;30.778;2022-12-07T04:35:46;7.80;;;4.07;;
46447;SDS011;32145;50.390;30.778;2022-12-07T04:38:30;13.27;;;4.70;;
46447;SDS011;32145;50.390;30.778;2022-12-07T04:41:14;11.63;;;4.68;;
46447;SDS011;32145;50.390;30.778;2022-12-07T04:44:00;11.18;;;5.05;;
46447;SDS011;32145;50.390;30.778;2022-12-07T04:46:46;15.13;;;4.85;;
46447;SDS011;32145;50.390;30.778;2022-12-07T04:49:31;10.68;;;4.47;;
46447;SDS011;32145;50.390;30.778;2022-12-07T04:52:15;14.07;;;4.72;;
46447;SDS011;32145;50.390;30.778;2022-12-07T04:54:59;8.40;;;3.92;;
46447;SDS011;32145;50.390;30.778;2022-12-07T04:57:43;9.55;;;4.32;;
46447;SDS011;32145;50.390;30.778;2022-12-07T05:00:28;10.68;;;4.88;;
46447;SDS011;32145;50.390;30.778;2022-12-07T05:03:12;9.82;;;4.47;;
46447;SDS011;32145;50.390;30.778;2022-12-07T05:05:56;13.10;;;4.90;;
46447;SDS011;32145;50.390;30.778;2022-12-07T05:08:40;13.50;;;5.57;;
46447;SDS011;32145;50.390;30.778;2022-12-07T05:11:25;10.35;;;4.78;;
46447;SDS011;32145;50.390;30.778;2022-12-07T05:14:10;10.68;;;4.85;;
46447;SDS011;32145;50.390;30.778;2022-12-07T05:16:57;11.20;;;5.32;;
46447;SDS011;32145;50.390;30.778;2022-12-07T05:19:41;12.80;;;4.78;;
46447;SDS011;32145;50.390;30.778;2022-12-07T05:22:25;12.95;;;5.60;;
46447;SDS011;32145;50.390;30.778;2022-12-07T05:25:09;13.55;;;4.78;;
46447;SDS011;32145;50.390;30.778;2022-12-07T05:27:54;15.52;;;4.68;;
46447;SDS011;32145;50.390;30.778;2022-12-07T05:30:38;12.02;;;5.07;;
46447;SDS011;32145;50.390;30.778;2022-12-07T05:33:24;15.65;;;5.15;;
46447;SDS011;32145;50.390;30.778;2022-12-07T05:36:08;14.48;;;5.20;;
46447;SDS011;32145;50.390;30.778;2022-12-07T05:38:52;11.52;;;5.07;;
46447;SDS011;32145;50.390;30.778;2022-12-07T05:41:36;14.45;;;5.25;;
46447;SDS011;32145;50.390;30.778;2022-12-07T05:44:20;10.02;;;5.25;;
46447;SDS011;32145;50.390;30.778;2022-12-07T05:47:04;11.50;;;4.78;;
46447;SDS011;32145;50.390;30.778;2022-12-07T05:49:50;11.32;;;4.78;;
46447;SDS011;32145;50.390;30.778;2022-12-07T05:52:34;12.88;;;4.90;;
46447;SDS011;32145;50.390;30.778;2022-12-07T05:55:18;18.02;;;6.05;;
46447;SDS011;32145;50.390;30.778;2022-12-07T05:58:02;11.20;;;4.57;;
46447;SDS011;32145;50.390;30.778;2022-12-07T06:00:46;14.23;;;5.20;;
46447;SDS011;32145;50.390;30.778;2022-12-07T06:03:30;14.50;;;4.95;;
46447;SDS011;32145;50.390;30.778;2022-12-07T06:06:15;12.07;;;4.47;;
46447;SDS011;32145;50.390;30.778;2022-12-07T06:08:59;10.55;;;4.53;;
46447;SDS011;32145;50.390;30.778;2022-12-07T06:11:43;8.32;;;4.13;;
46447;SDS011;32145;50.390;30.778;2022-12-07T06:14:28;11.77;;;4.97;;
46447;SDS011;32145;50.390;30.778;2022-12-07T06:17:12;12.20;;;5.15;;
46447;SDS011;32145;50.390;30.778;2022-12-07T06:19:57;14.73;;;5.15;;
46447;SDS011;32145;50.390;30.778;2022-12-07T06:22:42;16.02;;;4.90;;
46447;SDS011;32145;50.390;30.778;2022-12-07T06:25:27;10.80;;;4.80;;
46447;SDS011;32145;50.390;30.778;2022-12-07T06:28:11;12.75;;;5.10;;
46447;SDS011;32145;50.390;30.778;2022-12-07T06:30:56;12.68;;;4.80;;
46447;SDS011;32145;50.390;30.778;2022-12-07T06:33:41;11.63;;;5.30;;
46447;SDS011;32145;50.390;30.778;2022-12-07T06:36:25;10.05;;;4.78;;
46447;SDS011;32145;50.390;30.778;2022-12-07T06:39:10;11.50;;;5.32;;
46447;SDS011;32145;50.390;30.778;2022-12-07T06:41:55;12.30;;;4.82;;
46447;SDS011;32145;50.390;30.778;2022-12-07T06:44:39;17.77;;;5.35;;
46447;SDS011;32145;50.390;30.778;2022-12-07T06:47:24;11.55;;;5.35;;
46447;SDS011;32145;50.390;30.778;2022-12-07T06:50:08;11.95;;;5.32;;
46447;SDS011;32145;50.390;30.778;2022-12-07T06:52:52;12.80;;;5.43;;
46447;SDS011;32145;50.390;30.778;2022-12-07T06:55:38;12.82;;;5.55;;
46447;SDS011;32145;50.390;30.778;2022-12-07T06:58:22;16.45;;;5.28;;
46447;SDS011;32145;50.390;30.778;2022-12-07T07:01:08;12.95;;;5.07;;
46447;SDS011;32145;50.390;30.778;2022-12-07T07:03:53;12.07;;;5.78;;
46447;SDS011;32145;50.390;30.778;2022-12-07T07:06:37;13.23;;;5.80;;
46447;SDS011;32145;50.390;30.778;2022-12-07T07:09:20;14.13;;;6.20;;
46447;SDS011;32145;50.390;30.778;2022-12-07T07:12:06;13.40;;;5.70;;
46447;SDS011;32145;50.390;30.778;2022-12-07T07:14:50;11.95;;;5.68;;
46447;SDS011;32145;50.390;30.778;2022-12-07T07:17:34;12.50;;;6.25;;
46447;SDS011;32145;50.390;30.778;2022-12-07T07:20:18;10.18;;;4.95;;
46447;SDS011;32145;50.390;30.778;2022-12-07T07:23:02;12.88;;;5.78;;
46447;SDS011;32145;50.390;30.778;2022-12-07T07:25:47;12.93;;;4.80;;
46447;SDS011;32145;50.390;30.778;2022-12-07T07:28:32;11.35;;;5.55;;
46447;SDS011;32145;50.390;30.778;2022-12-07T07:31:17;16.15;;;5.32;;
46447;SDS011;32145;50.390;30.778;2022-12-07T07:34:01;14.57;;;6.18;;
46447;SDS011;32145;50.390;30.778;2022-12-07T07:36:44;14.18;;;6.07;;
46447;SDS011;32145;50.390;30.778;2022-12-07T07:39:28;13.18;;;6.07;;
46447;SDS011;32145;50.390;30.778;2022-12-07T07:42:12;15.90;;;5.88;;
46447;SDS011;32145;50.390;30.778;2022-12-07T07:44:58;13.88;;;5.60;;
46447;SDS011;32145;50.390;30.778;2022-12-07T07:47:42;12.85;;;6.50;;
46447;SDS011;32145;50.390;30.778;2022-12-07T07:50:26;16.10;;;7.07;;
46447;SDS011;32145;50.390;30.778;2022-12-07T07:53:10;14.75;;;7.47;;
46447;SDS011;32145;50.390;30.778;2022-12-07T07:55:54;12.63;;;5.75;;
46447;SDS011;32145;50.390;30.778;2022-12-07T07:58:38;18.25;;;8.73;;
46447;SDS011;32145;50.390;30.778;2022-12-07T08:01:23;17.63;;;6.85;;
46447;SDS011;32145;50.390;30.778;2022-12-07T08:04:08;16.55;;;7.72;;
46447;SDS011;32145;50.390;30.778;2022-12-07T08:06:51;18.15;;;7.78;;
46447;SDS011;32145;50.390;30.778;2022-12-07T08:09:36;19.95;;;8.35;;
46447;SDS011;32145;50.390;30.778;2022-12-07T08:12:20;21.38;;;10.18;;
46447;SDS011;32145;50.390;30.778;2022-12-07T08:15:04;17.42;;;8.73;;
46447;SDS011;32145;50.390;30.778;2022-12-07T08:17:51;20.90;;;8.27;;
46447;SDS011;32145;50.390;30.778;2022-12-07T08:20:35;18.05;;;8.20;;
46447;SDS011;32145;50.390;30.778;2022-12-07T08:23:20;19.73;;;9.98;;
46447;SDS011;32145;50.390;30.778;2022-12-07T08:26:05;18.63;;;9.20;;
46447;SDS011;32145;50.390;30.778;2022-12-07T08:28:52;19.92;;;9.18;;
46447;SDS011;32145;50.390;30.778;2022-12-07T08:31:37;18.25;;;8.02;;
46447;SDS011;32145;50.390;30.778;2022-12-07T08:34:22;16.25;;;8.27;;
46447;SDS011;32145;50.390;30.778;2022-12-07T08:37:06;16.80;;;8.77;;
46447;SDS011;32145;50.390;30.778;2022-12-07T08:39:50;21.55;;;10.90;;
46447;SDS011;32145;50.390;30.778;2022-12-07T08:42:34;20.52;;;9.60;;
46447;SDS011;32145;50.390;30.778;2022-12-07T08:45:19;25.50;;;12.05;;
46447;SDS011;32145;50.390;30.778;2022-12-07T08:48:06;26.95;;;12.55;;
46447;SDS011;32145;50.390;30.778;2022-12-07T08:50:56;26.33;;;11.45;;
46447;SDS011;32145;50.390;30.778;2022-12-07T08:53:41;22.27;;;11.20;;
46447;SDS011;32145;50.390;30.778;2022-12-07T08:56:27;26.08;;;12.10;;
46447;SDS011;32145;50.390;30.778;2022-12-07T08:59:12;26.38;;;13.40;;
46447;SDS011;32145;50.390;30.778;2022-12-07T09:01:58;24.77;;;12.90;;
46447;SDS011;32145;50.390;30.778;2022-12-07T09:04:42;20.92;;;11.55;;
46447;SDS011;32145;50.390;30.778;2022-12-07T09:07:27;25.30;;;10.30;;
46447;SDS011;32145;50.390;30.778;2022-12-07T09:12:59;20.40;;;11.68;;
46447;SDS011;32145;50.390;30.778;2022-12-07T09:15:43;20.05;;;10.88;;
46447;SDS011;32145;50.390;30.778;2022-12-07T09:18:27;27.10;;;11.88;;
46447;SDS011;32145;50.390;30.778;2022-12-07T09:21:11;23.02;;;12.18;;
46447;SDS011;32145;50.390;30.778;2022-12-07T09:23:57;57.42;;;19.33;;
46447;SDS011;32145;50.390;30.778;2022-12-07T09:26:40;41.55;;;15.80;;
46447;SDS011;32145;50.390;30.778;2022-12-07T09:29:25;38.83;;;18.40;;
46447;SDS011;32145;50.390;30.778;2022-12-07T09:32:08;36.65;;;14.80;;
46447;SDS011;32145;50.390;30.778;2022-12-07T09:34:52;27.77;;;13.65;;
46447;SDS011;32145;50.390;30.778;2022-12-07T09:37:36;25.98;;;12.82;;
46447;SDS011;32145;50.390;30.778;2022-12-07T09:40:22;22.85;;;13.15;;
46447;SDS011;32145;50.390;30.778;2022-12-07T09:43:10;23.40;;;13.20;;
46447;SDS011;32145;50.390;30.778;2022-12-07T09:45:57;25.67;;;12.45;;
46447;SDS011;32145;50.390;30.778;2022-12-07T09:48:42;24.58;;;12.32;;
46447;SDS011;32145;50.390;30.778;2022-12-07T09:51:27;28.23;;;12.50;;
46447;SDS011;32145;50.390;30.778;2022-12-07T09:54:12;22.33;;;12.93;;
46447;SDS011;32145;50.390;30.778;2022-12-07T09:56:59;23.98;;;13.38;;
46447;SDS011;32145;50.390;30.778;2022-12-07T09:59:43;27.25;;;13.75;;
46447;SDS011;32145;50.390;30.778;2022-12-07T10:02:33;20.10;;;12.00;;
46447;SDS011;32145;50.390;30.778;2022-12-07T10:05:19;23.55;;;12.93;;
46447;SDS011;32145;50.390;30.778;2022-12-07T10:08:07;24.15;;;13.40;;
46447;SDS011;32145;50.390;30.778;2022-12-07T10:10:53;26.88;;;13.20;;
46447;SDS011;32145;50.390;30.778;2022-12-07T10:13:40;24.10;;;14.07;;
46447;SDS011;32145;50.390;30.778;2022-12-07T10:16:30;22.92;;;14.05;;
46447;SDS011;32145;50.390;30.778;2022-12-07T10:19:20;27.90;;;14.68;;
46447;SDS011;32145;50.390;30.778;2022-12-07T10:22:11;28.77;;;14.52;;
46447;SDS011;32145;50.390;30.778;2022-12-07T10:27:57;40.88;;;18.38;;
46447;SDS011;32145;50.390;30.778;2022-12-07T10:30:48;32.58;;;16.73;;
46447;SDS011;32145;50.390;30.778;2022-12-07T10:33:36;35.10;;;16.60;;
46447;SDS011;32145;50.390;30.778;2022-12-07T10:36:22;34.22;;;16.88;;
46447;SDS011;32145;50.390;30.778;2022-12-07T10:39:11;37.60;;;17.88;;
46447;SDS011;32145;50.390;30.778;2022-12-07T10:44:42;35.03;;;16.27;;
46447;SDS011;32145;50.390;30.778;2022-12-07T10:47:36;30.52;;;15.93;;
46447;SDS011;32145;50.390;30.778;2022-12-07T10:50:36;28.88;;;15.18;;
46447;SDS011;32145;50.390;30.778;2022-12-07T10:53:39;29.27;;;14.98;;
46447;SDS011;32145;50.390;30.778;2022-12-07T10:59:53;27.10;;;15.43;;
46447;SDS011;32145;50.390;30.778;2022-12-07T11:02:58;31.15;;;15.40;;
46447;SDS011;32145;50.390;30.778;2022-12-07T11:06:01;24.92;;;13.75;;
46447;SDS011;32145;50.390;30.778;2022-12-07T11:09:06;26.80;;;14.05;;
46447;SDS011;32145;50.390;30.778;2022-12-07T11:12:10;27.08;;;14.93;;
46447;SDS011;32145;50.390;30.778;2022-12-07T11:15:00;28.55;;;15.43;;
46447;SDS011;32145;50.390;30.778;2022-12-07T11:17:48;30.73;;;14.95;;
46447;SDS011;32145;50.390;30.778;2022-12-07T11:20:43;27.70;;;15.70;;
46447;SDS011;32145;50.390;30.778;2022-12-07T11:23:34;34.28;;;14.95;;
46447;SDS011;32145;50.390;30.778;2022-12-07T11:26:33;34.13;;;17.42;;
46447;SDS011;32145;50.390;30.778;2022-12-07T11:29:28;31.23;;;17.55;;
46447;SDS011;32145;50.390;30.778;2022-12-07T11:32:40;30.67;;;16.58;;
46447;SDS011;32145;50.390;30.778;2022-12-07T11:35:38;40.33;;;20.38;;
46447;SDS011;32145;50.390;30.778;2022-12-07T11:38:33;31.52;;;15.85;;
46447;SDS011;32145;50.390;30.778;2022-12-07T11:41:26;31.20;;;16.42;;
46447;SDS011;32145;50.390;30.778;2022-12-07T11:44:17;34.08;;;17.02;;
46447;SDS011;32145;50.390;30.778;2022-12-07T11:47:09;30.10;;;16.05;;
46447;SDS011;32145;50.390;30.778;2022-12-07T11:50:03;33.10;;;15.90;;
46447;SDS011;32145;50.390;30.778;2022-12-07T11:52:59;31.15;;;16.23;;
46447;SDS011;32145;50.390;30.778;2022-12-07T11:55:49;29.48;;;15.32;;
46447;SDS011;32145;50.390;30.778;2022-12-07T11:58:38;28.25;;;15.63;;
46447;SDS011;32145;50.390;30.778;2022-12-07T12:01:31;36.15;;;15.63;;
46447;SDS011;32145;50.390;30.778;2022-12-07T12:04:28;30.48;;;15.82;;
46447;SDS011;32145;50.390;30.778;2022-12-07T12:07:19;28.55;;;16.00;;
46447;SDS011;32145;50.390;30.778;2022-12-07T12:10:13;31.02;;;15.75;;
46447;SDS011;32145;50.390;30.778;2022-12-07T12:13:05;29.00;;;15.27;;
46447;SDS011;32145;50.390;30.778;2022-12-07T12:16:17;25.58;;;14.93;;
46447;SDS011;32145;50.390;30.778;2022-12-07T12:19:22;29.80;;;16.73;;
46447;SDS011;32145;50.390;30.778;2022-12-07T12:22:12;28.67;;;15.68;;
46447;SDS011;32145;50.390;30.778;2022-12-07T12:25:02;29.15;;;16.67;;
46447;SDS011;32145;50.390;30.778;2022-12-07T12:27:50;35.17;;;17.98;;
46447;SDS011;32145;50.390;30.778;2022-12-07T12:30:37;41.17;;;20.35;;
46447;SDS011;32145;50.390;30.778;2022-12-07T12:33:28;33.55;;;19.05;;
46447;SDS011;32145;50.390;30.778;2022-12-07T12:36:18;29.23;;;16.98;;
46447;SDS011;32145;50.390;30.778;2022-12-07T12:39:08;33.80;;;17.73;;
46447;SDS011;32145;50.390;30.778;2022-12-07T12:41:55;28.70;;;16.25;;
46447;SDS011;32145;50.390;30.778;2022-12-07T12:48:00;33.33;;;16.65;;
46447;SDS011;32145;50.390;30.778;2022-12-07T12:50:45;30.45;;;16.15;;
46447;SDS011;32145;50.390;30.778;2022-12-07T12:53:29;29.75;;;16.08;;
46447;SDS011;32145;50.390;30.778;2022-12-07T12:56:22;28.45;;;16.08;;
46447;SDS011;32145;50.390;30.778;2022-12-07T12:59:22;26.55;;;14.65;;
46447;SDS011;32145;50.390;30.778;2022-12-07T13:02:16;27.30;;;15.70;;
46447;SDS011;32145;50.390;30.778;2022-12-07T13:05:14;28.25;;;16.60;;
46447;SDS011;32145;50.390;30.778;2022-12-07T13:08:02;31.40;;;16.90;;
46447;SDS011;32145;50.390;30.778;2022-12-07T13:11:15;32.88;;;17.42;;
46447;SDS011;32145;50.390;30.778;2022-12-07T13:20:52;34.15;;;17.95;;
46447;SDS011;32145;50.390;30.778;2022-12-07T13:23:38;33.05;;;17.13;;
46447;SDS011;32145;50.390;30.778;2022-12-07T13:26:36;28.35;;;16.88;;
46447;SDS011;32145;50.390;30.778;2022-12-07T13:29:21;30.60;;;17.23;;
46447;SDS011;32145;50.390;30.778;2022-12-07T13:32:16;28.17;;;16.55;;
46447;SDS011;32145;50.390;30.778;2022-12-07T13:38:22;29.63;;;15.93;;
46447;SDS011;32145;50.390;30.778;2022-12-07T13:41:13;27.02;;;16.05;;
46447;SDS011;32145;50.390;30.778;2022-12-07T13:44:00;31.77;;;16.38;;
46447;SDS011;32145;50.390;30.778;2022-12-07T13:46:48;30.02;;;15.88;;
46447;SDS011;32145;50.390;30.778;2022-12-07T13:49:38;28.73;;;15.20;;
46447;SDS011;32145;50.390;30.778;2022-12-07T13:52:32;30.55;;;16.25;;
46447;SDS011;32145;50.390;30.778;2022-12-07T13:55:16;33.65;;;18.55;;
46447;SDS011;32145;50.390;30.778;2022-12-07T13:58:01;31.02;;;17.65;;
46447;SDS011;32145;50.390;30.778;2022-12-07T14:00:45;31.67;;;15.23;;
46447;SDS011;32145;50.390;30.778;2022-12-07T14:03:31;27.75;;;16.33;;
46447;SDS011;32145;50.390;30.778;2022-12-07T14:06:19;30.00;;;15.48;;
46447;SDS011;32145;50.390;30.778;2022-12-07T14:09:18;33.58;;;15.65;;
46447;SDS011;32145;50.390;30.778;2022-12-07T14:12:05;28.33;;;15.93;;
46447;SDS011;32145;50.390;30.778;2022-12-07T14:14:50;29.88;;;17.23;;
46447;SDS011;32145;50.390;30.778;2022-12-07T14:17:35;34.20;;;16.40;;
46447;SDS011;32145;50.390;30.778;2022-12-07T14:20:30;30.55;;;16.65;;
46447;SDS011;32145;50.390;30.778;2022-12-07T14:23:22;28.90;;;16.23;;
46447;SDS011;32145;50.390;30.778;2022-12-07T14:26:12;29.27;;;16.30;;
46447;SDS011;32145;50.390;30.778;2022-12-07T14:32:17;29.83;;;15.45;;
46447;SDS011;32145;50.390;30.778;2022-12-07T14:35:08;30.38;;;16.40;;
46447;SDS011;32145;50.390;30.778;2022-12-07T14:37:53;36.55;;;17.55;;
46447;SDS011;32145;50.390;30.778;2022-12-07T14:40:37;41.63;;;22.65;;
46447;SDS011;32145;50.390;30.778;2022-12-07T14:43:23;37.97;;;20.63;;
46447;SDS011;32145;50.390;30.778;2022-12-07T14:46:08;30.80;;;16.80;;
46447;SDS011;32145;50.390;30.778;2022-12-07T14:48:52;28.80;;;16.83;;
46447;SDS011;32145;50.390;30.778;2022-12-07T14:51:37;29.40;;;17.13;;
46447;SDS011;32145;50.390;30.778;2022-12-07T14:54:25;32.80;;;16.88;;
46447;SDS011;32145;50.390;30.778;2022-12-07T14:57:13;30.35;;;16.40;;
46447;SDS011;32145;50.390;30.778;2022-12-07T14:59:58;35.65;;;17.83;;
46447;SDS011;32145;50.390;30.778;2022-12-07T15:02:43;31.92;;;17.40;;
46447;SDS011;32145;50.390;30.778;2022-12-07T15:05:27;27.35;;;15.80;;
46447;SDS011;32145;50.390;30.778;2022-12-07T15:08:11;34.97;;;17.85;;
46447;SDS011;32145;50.390;30.778;2022-12-07T15:10:56;29.90;;;16.08;;
46447;SDS011;32145;50.390;30.778;2022-12-07T15:13:40;30.23;;;17.52;;
46447;SDS011;32145;50.390;30.778;2022-12-07T15:16:25;33.33;;;18.20;;
46447;SDS011;32145;50.390;30.778;2022-12-07T15:19:10;37.80;;;18.60;;
46447;SDS011;32145;50.390;30.778;2022-12-07T15:21:57;35.88;;;18.38;;
46447;SDS011;32145;50.390;30.778;2022-12-07T15:24:41;39.42;;;19.58;;
46447;SDS011;32145;50.390;30.778;2022-12-07T15:27:25;37.72;;;18.73;;
46447;SDS011;32145;50.390;30.778;2022-12-07T15:30:10;37.17;;;19.42;;
46447;SDS011;32145;50.390;30.778;2022-12-07T15:32:55;39.47;;;20.90;;
46447;SDS011;32145;50.390;30.778;2022-12-07T15:35:40;39.33;;;20.35;;
46447;SDS011;32145;50.390;30.778;2022-12-07T15:38:24;40.42;;;20.13;;
46447;SDS011;32145;50.390;30.778;2022-12-07T15:41:08;39.13;;;20.00;;
46447;SDS011;32145;50.390;30.778;2022-12-07T15:43:54;41.60;;;19.92;;
46447;SDS011;32145;50.390;30.778;2022-12-07T15:46:40;37.33;;;20.10;;
46447;SDS011;32145;50.390;30.778;2022-12-07T15:49:26;37.17;;;19.65;;
46447;SDS011;32145;50.390;30.778;2022-12-07T15:52:11;45.35;;;22.50;;
46447;SDS011;32145;50.390;30.778;2022-12-07T15:54:55;37.38;;;19.85;;
46447;SDS011;32145;50.390;30.778;2022-12-07T15:57:39;36.03;;;19.10;;
46447;SDS011;32145;50.390;30.778;2022-12-07T16:00:23;57.00;;;26.88;;
46447;SDS011;32145;50.390;30.778;2022-12-07T16:03:07;52.28;;;25.63;;
46447;SDS011;32145;50.390;30.778;2022-12-07T16:05:53;47.55;;;22.48;;
46447;SDS011;32145;50.390;30.778;2022-12-07T16:08:40;45.25;;;23.40;;
46447;SDS011;32145;50.390;30.778;2022-12-07T16:11:25;42.17;;;20.90;;
46447;SDS011;32145;50.390;30.778;2022-12-07T16:14:10;58.63;;;25.70;;
46447;SDS011;32145;50.390;30.778;2022-12-07T16:16:54;75.75;;;29.40;;
46447;SDS011;32145;50.390;30.778;2022-12-07T16:19:38;52.40;;;23.35;;
46447;SDS011;32145;50.390;30.778;2022-12-07T16:22:24;66.22;;;33.47;;
46447;SDS011;32145;50.390;30.778;2022-12-07T16:25:09;39.05;;;21.27;;
46447;SDS011;32145;50.390;30.778;2022-12-07T16:27:53;58.10;;;25.30;;
46447;SDS011;32145;50.390;30.778;2022-12-07T16:30:37;50.72;;;22.10;;
46447;SDS011;32145;50.390;30.778;2022-12-07T16:33:21;50.70;;;23.42;;
46447;SDS011;32145;50.390;30.778;2022-12-07T16:36:06;49.78;;;22.30;;
46447;SDS011;32145;50.390;30.778;2022-12-07T16:38:53;42.85;;;20.75;;
46447;SDS011;32145;50.390;30.778;2022-12-07T16:41:37;57.35;;;26.02;;
46447;SDS011;32145;50.390;30.778;2022-12-07T16:44:32;64.03;;;29.20;;
46447;SDS011;32145;50.390;30.778;2022-12-07T16:47:18;64.13;;;31.90;;
46447;SDS011;32145;50.390;30.778;2022-12-07T16:50:02;60.13;;;28.08;;
46447;SDS011;32145;50.390;30.778;2022-12-07T16:52:47;58.63;;;28.52;;